EDDN

Nuremberg Airport

Nuremberg, Germany
METAR EDDN 250450Z VRB02KT 9000 MIFG NSC 14/13 Q1019 NOSIG
Observed Flight Rules
May-25 @ 04:50 UTC (28 minutes ago) Visual Flight Rules
Wind Visibility Clouds Conditions
Variable at 2 knots 8,996 meters
  • Clear skies
  • Shallow
  • Fog
Temperatures Readings
Current 14°C / 57°F
Dewpoint 13°C / 55°F
Humidity 94%
Altimeter 30.09" Hg
Pressure 1019 hPa
Elevation 312
METAR EDDN 250450Z VRB02KT 9000 MIFG NSC 14/13 Q1019 NOSIG
Observed Flight Rules
May-25 @ 04:50 UTC
(28 minutes ago)
VFR
Wind Visibility
Variable at 2 knots 8,996 meters
Clouds
  • Clear skies
Conditions
  • Shallow
  • Fog
Temperature Dewpoint
14°C / 57°F 13°C / 55°F
Humidity Altimeter Pressure
94% 30.09" Hg 1019 hPa